Time;durP1;ratioP1;P1;durP2;ratioP2;P2;SDS_P1;SDS_P2;PMS_P1;PMS_P2;Temp;Humidity;BMP_temperature;BMP_pressure;BME280_temperature;BME280_humidity;BME280_pressure;Samples;Min_cycle;Max_cycle;Signal;HPM_P1;HPM_P2
2023/03/14 00:02:15;;;;;;;;;;;;;;;3.90;55.04;100262.78;5071939;28;19916;-85
2023/03/14 00:04:41;;;;;;;;;;;;;;;3.98;54.47;100260.31;5071418;28;20485;-85
2023/03/14 00:07:06;;;;;;;;;;;;;;;3.90;54.29;100261.91;5071583;28;20003;-85
2023/03/14 00:09:31;;;;;;;;;;;;;;;3.71;55.22;100263.25;5071721;28;19970;-85
2023/03/14 00:11:57;;;;;;;;;;;;;;;3.81;55.03;100259.09;5071308;28;20405;-85
2023/03/14 00:14:23;;;;;;;;;;;;;;;3.71;55.14;100251.06;5071057;28;19923;-85
2023/03/14 00:16:48;;;;;;;;;;;;;;;3.79;54.66;100252.97;5072112;28;19923;-84
2023/03/14 00:19:13;;;;;;;;;;;;;;;3.69;55.46;100252.78;5071409;28;19919;-84
2023/03/14 00:21:39;;;;;;;;;;;;;;;3.79;55.92;100243.41;5071828;28;19923;-84
2023/03/14 00:24:04;;;;;;;;;;;;;;;3.83;55.83;100245.25;5071772;28;20347;-86
2023/03/14 00:26:29;;;;;;;;;;;;;;;3.79;55.53;100245.13;5070891;28;19999;-85
2023/03/14 00:28:55;;;;;;;;;;;;;;;3.75;55.68;100237.25;5071728;28;19970;-87
2023/03/14 00:31:20;;;;;;;;;;;;;;;3.73;55.88;100238.06;5071147;28;20584;-87
2023/03/14 00:33:46;;;;;;;;;;;;;;;3.73;54.83;100227.63;5071063;28;20349;-86
2023/03/14 00:36:16;;;;;;;;;;;;;;;3.36;55.33;100222.47;5068879;28;19916;-86
2023/03/14 00:38:42;;;;;;;;;;;;;;;3.17;55.33;100218.56;5071192;28;19955;-86
2023/03/14 00:41:11;;;;;;;;;;;;;;;2.82;56.47;100215.97;5070451;28;19974;-83
2023/03/14 00:43:37;;;;;;;;;;;;;;;2.51;57.25;100217.81;5071517;28;19919;-84
2023/03/14 00:46:03;;;;;;;;;;;;;;;2.60;57.83;100211.97;5069628;28;20392;-86
2023/03/14 00:48:28;;;;;;;;;;;;;;;2.79;57.34;100204.59;5070563;28;20018;-85
2023/03/14 00:50:53;;;;;;;;;;;;;;;2.89;57.55;100203.09;5070702;28;19982;-84
2023/03/14 00:53:19;;;;;;;;;;;;;;;2.98;57.49;100203.31;5070775;28;19912;-85
2023/03/14 00:55:44;;;;;;;;;;;;;;;2.83;58.39;100193.44;5070984;28;19913;-85
2023/03/14 00:58:11;;;;;;;;;;;;;;;2.90;58.00;100173.59;5070227;28;19920;-85
2023/03/14 01:00:36;;;;;;;;;;;;;;;2.66;58.22;100190.41;5071063;28;19912;-85
2023/03/14 01:03:02;;;;;;;;;;;;;;;2.89;58.16;100185.75;5070368;28;20995;-85
2023/03/14 01:05:27;;;;;;;;;;;;;;;2.83;58.18;100183.00;5070624;28;19981;-85
2023/03/14 01:07:53;;;;;;;;;;;;;;;2.82;59.08;100183.84;5070085;28;20342;-85
2023/03/14 01:10:18;;;;;;;;;;;;;;;2.84;58.96;100180.44;5070784;28;19923;-85
2023/03/14 01:12:43;;;;;;;;;;;;;;;2.86;58.97;100176.13;5071296;28;19919;-85
2023/03/14 01:15:09;;;;;;;;;;;;;;;2.90;58.75;100184.03;5071011;28;20276;-85
2023/03/14 01:17:35;;;;;;;;;;;;;;;2.80;58.69;100180.31;5070437;28;20382;-85
2023/03/14 01:20:00;;;;;;;;;;;;;;;2.94;58.76;100167.63;5070118;28;20318;-85
2023/03/14 01:22:26;;;;;;;;;;;;;;;2.94;57.68;100172.84;5070405;28;19916;-85
2023/03/14 01:24:51;;;;;;;;;;;;;;;2.75;57.62;100171.50;5069949;28;19985;-85
2023/03/14 01:27:16;;;;;;;;;;;;;;;2.67;58.60;100166.09;5070261;28;19912;-85
2023/03/14 01:29:41;;;;;;;;;;;;;;;2.60;57.89;100166.81;5070157;28;20003;-85
2023/03/14 01:32:07;;;;;;;;;;;;;;;2.50;57.70;100163.06;5070832;28;20298;-85
2023/03/14 01:34:32;;;;;;;;;;;;;;;2.48;58.27;100157.81;5070374;28;19924;-85
2023/03/14 01:36:57;;;;;;;;;;;;;;;2.58;57.53;100155.44;5070487;28;20776;-85
2023/03/14 01:39:23;;;;;;;;;;;;;;;2.65;57.77;100158.25;5070016;28;20390;-85
2023/03/14 01:41:48;;;;;;;;;;;;;;;2.65;57.67;100150.44;5070769;28;19908;-85
2023/03/14 01:44:13;;;;;;;;;;;;;;;2.69;57.20;100160.09;5070532;28;20374;-85
2023/03/14 01:46:40;;;;;;;;;;;;;;;2.44;57.03;100153.41;5070647;28;19912;-85
2023/03/14 01:49:05;;;;;;;;;;;;;;;2.38;57.48;100152.34;5077111;28;19913;-82
2023/03/14 01:51:54;;;;;;;;;;;;;;;2.42;57.24;100147.25;5079746;28;19931;-82
2023/03/14 01:54:27;;;;;;;;;;;;;;;2.39;58.42;100148.91;5014888;28;19914;-84
2023/03/14 01:56:55;;;;;;;;;;;;;;;2.54;57.93;100151.91;5008347;28;20307;-84
2023/03/14 01:59:21;;;;;;;;;;;;;;;2.50;57.89;100145.75;5007122;28;20285;-84
2023/03/14 02:01:47;;;;;;;;;;;;;;;2.46;58.42;100149.09;5006321;28;19917;-84
2023/03/14 02:04:14;;;;;;;;;;;;;;;2.52;58.46;100143.19;5008205;28;19964;-84
2023/03/14 02:06:51;;;;;;;;;;;;;;;2.54;58.46;100146.69;4991359;28;20404;-84
2023/03/14 02:09:16;;;;;;;;;;;;;;;2.45;59.01;100136.91;5008214;28;20009;-85
2023/03/14 02:11:43;;;;;;;;;;;;;;;2.47;58.72;100139.56;5000121;28;19957;-85
2023/03/14 02:14:12;;;;;;;;;;;;;;;2.32;59.06;100137.47;4988747;28;19921;-84
2023/03/14 02:16:38;;;;;;;;;;;;;;;2.16;59.29;100138.78;4988635;28;20718;-84
2023/03/14 02:19:05;;;;;;;;;;;;;;;2.35;58.85;100134.03;4988922;28;20025;-84
2023/03/14 02:21:49;;;;;;;;;;;;;;;2.41;58.86;100137.69;4989531;28;19924;-84
2023/03/14 02:24:49;;;;;;;;;;;;;;;2.50;58.93;100137.94;4988714;28;19922;-84
2023/03/14 02:27:16;;;;;;;;;;;;;;;2.21;59.42;100133.69;4968663;28;20399;-84
2023/03/14 02:29:52;;;;;;;;;;;;;;;2.15;58.77;100129.22;4972160;28;19918;-84
2023/03/14 02:32:19;;;;;;;;;;;;;;;2.09;59.53;100134.28;5008451;28;20036;-84
2023/03/14 02:34:45;;;;;;;;;;;;;;;2.18;59.65;100133.59;5011583;28;20019;-84
2023/03/14 02:37:12;;;;;;;;;;;;;;;2.34;59.22;100130.56;5011674;28;19927;-84
2023/03/14 02:39:42;;;;;;;;;;;;;;;2.45;58.81;100125.63;5012055;28;19960;-84
2023/03/14 02:42:07;;;;;;;;;;;;;;;2.39;58.36;100133.28;5011088;28;19914;-84
2023/03/14 02:44:35;;;;;;;;;;;;;;;2.23;58.99;100132.91;5011613;28;19932;-84
2023/03/14 02:47:00;;;;;;;;;;;;;;;2.12;59.47;100143.03;5011833;28;20307;-84
2023/03/14 02:49:28;;;;;;;;;;;;;;;2.06;59.51;100144.59;5011426;28;19917;-84
2023/03/14 02:51:53;;;;;;;;;;;;;;;1.97;59.50;100143.50;5011728;28;19920;-84
2023/03/14 02:54:19;;;;;;;;;;;;;;;1.98;59.80;100139.19;5011191;28;19913;-84
2023/03/14 02:56:45;;;;;;;;;;;;;;;1.94;59.69;100138.22;5010936;28;19913;-84
2023/03/14 02:59:11;;;;;;;;;;;;;;;1.97;59.68;100135.69;5011883;28;20558;-84
2023/03/14 03:01:36;;;;;;;;;;;;;;;2.03;59.40;100140.19;5052465;28;19966;-87
2023/03/14 03:04:02;;;;;;;;;;;;;;;2.11;59.41;100146.47;5072791;28;20354;-86
2023/03/14 03:06:27;;;;;;;;;;;;;;;2.02;59.41;100151.44;5071584;28;19988;-85
2023/03/14 03:08:53;;;;;;;;;;;;;;;2.03;59.43;100152.31;5072796;28;20294;-86
2023/03/14 03:11:18;;;;;;;;;;;;;;;1.91;59.75;100153.72;5072718;28;19912;-84
2023/03/14 03:13:43;;;;;;;;;;;;;;;1.83;59.60;100154.38;5073268;28;19913;-85
2023/03/14 03:16:09;;;;;;;;;;;;;;;1.88;59.22;100148.44;5072778;28;19916;-86
2023/03/14 03:18:34;;;;;;;;;;;;;;;2.03;58.04;100155.78;5072666;28;19929;-87
2023/03/14 03:21:01;;;;;;;;;;;;;;;1.76;58.81;100158.50;5072570;28;19955;-86
2023/03/14 03:23:26;;;;;;;;;;;;;;;1.48;60.03;100162.06;5072515;28;19913;-85
2023/03/14 03:25:51;;;;;;;;;;;;;;;1.32;60.04;100159.00;5072230;28;19916;-86
2023/03/14 03:28:17;;;;;;;;;;;;;;;1.28;60.48;100164.06;5073156;28;20053;-87
2023/03/14 03:30:43;;;;;;;;;;;;;;;1.30;60.37;100167.59;5072817;28;20299;-86
2023/03/14 03:33:09;;;;;;;;;;;;;;;1.50;59.92;100157.78;5072785;28;19912;-87
2023/03/14 03:35:35;;;;;;;;;;;;;;;1.30;60.57;100155.50;5072366;28;19908;-86
2023/03/14 03:38:00;;;;;;;;;;;;;;;1.22;60.97;100154.34;5072404;28;19912;-86
2023/03/14 03:40:25;;;;;;;;;;;;;;;1.24;61.26;100156.19;5071986;28;20009;-88
2023/03/14 03:42:51;;;;;;;;;;;;;;;1.36;61.78;100157.38;5072579;28;19916;-85
2023/03/14 03:45:16;;;;;;;;;;;;;;;1.35;61.51;100159.09;5072282;28;20012;-84
2023/03/14 03:47:41;;;;;;;;;;;;;;;1.45;61.72;100155.03;5072334;28;20362;-84
2023/03/14 03:50:07;;;;;;;;;;;;;;;1.59;61.13;100168.44;5072493;28;19919;-85
2023/03/14 03:52:32;;;;;;;;;;;;;;;1.36;61.68;100162.56;5070923;28;20027;-85
2023/03/14 03:54:58;;;;;;;;;;;;;;;1.23;61.21;100154.41;5072453;28;19923;-84
2023/03/14 03:57:23;;;;;;;;;;;;;;;1.04;61.38;100162.50;5071982;28;19923;-85
2023/03/14 03:59:48;;;;;;;;;;;;;;;1.00;61.77;100161.50;5072347;28;19913;-87
2023/03/14 04:02:13;;;;;;;;;;;;;;;1.02;61.72;100162.44;5071999;28;19912;-84
2023/03/14 04:04:39;;;;;;;;;;;;;;;0.89;62.17;100157.69;5072132;28;19912;-83
2023/03/14 04:07:04;;;;;;;;;;;;;;;0.83;62.01;100160.97;5072088;28;19912;-84
2023/03/14 04:09:30;;;;;;;;;;;;;;;0.63;62.97;100159.47;5071786;28;19969;-84
2023/03/14 04:11:55;;;;;;;;;;;;;;;0.46;64.10;100151.97;5071468;28;20359;-83
2023/03/14 04:14:21;;;;;;;;;;;;;;;0.35;64.60;100150.75;5071562;28;19971;-83
2023/03/14 04:16:46;;;;;;;;;;;;;;;0.16;64.93;100146.66;5071771;28;19947;-83
2023/03/14 04:19:11;;;;;;;;;;;;;;;0.32;63.88;100138.53;5071581;28;19938;-83
2023/03/14 04:21:40;;;;;;;;;;;;;;;0.49;63.80;100130.44;5070997;28;19951;-83
2023/03/14 04:24:05;;;;;;;;;;;;;;;0.42;64.53;100124.19;5067801;28;19916;-83
2023/03/14 04:26:30;;;;;;;;;;;;;;;0.24;64.85;100123.56;5070011;28;20034;-82
2023/03/14 04:28:56;;;;;;;;;;;;;;;0.17;65.12;100115.59;5065506;28;20397;-83
2023/03/14 04:31:21;;;;;;;;;;;;;;;0.17;65.32;100112.09;5071518;28;20394;-82
2023/03/14 04:33:47;;;;;;;;;;;;;;;0.09;65.49;100114.41;5071118;28;19912;-83
2023/03/14 04:36:13;;;;;;;;;;;;;;;0.47;64.57;100119.16;5071507;28;19912;-84
2023/03/14 04:38:38;;;;;;;;;;;;;;;0.61;64.37;100127.38;5070387;28;20410;-83
2023/03/14 04:41:03;;;;;;;;;;;;;;;0.60;64.65;100116.09;5069875;28;20352;-83
2023/03/14 04:43:29;;;;;;;;;;;;;;;0.74;64.18;100124.31;5070357;28;19916;-82
2023/03/14 04:45:55;;;;;;;;;;;;;;;0.66;64.50;100116.28;5070290;28;19924;-80
2023/03/14 04:48:21;;;;;;;;;;;;;;;0.86;64.43;100122.09;5070397;28;19908;-82
2023/03/14 04:50:46;;;;;;;;;;;;;;;1.13;64.72;100125.50;5070354;28;19923;-82
2023/03/14 04:53:12;;;;;;;;;;;;;;;1.35;64.69;100119.22;5070076;28;20007;-82
2023/03/14 04:55:37;;;;;;;;;;;;;;;1.52;62.60;100127.50;5070827;28;19912;-82
2023/03/14 04:58:03;;;;;;;;;;;;;;;1.56;61.96;100130.25;5070203;28;19920;-83
2023/03/14 05:00:28;;;;;;;;;;;;;;;1.64;61.53;100124.34;5074355;28;19969;-79
2023/03/14 05:02:53;;;;;;;;;;;;;;;1.74;60.84;100124.66;5071547;28;19917;-80
2023/03/14 05:05:19;;;;;;;;;;;;;;;1.67;60.88;100129.66;5072959;28;19917;-82
2023/03/14 05:07:44;;;;;;;;;;;;;;;1.74;60.65;100132.47;5071332;28;19939;-85
2023/03/14 05:10:10;;;;;;;;;;;;;;;1.84;61.18;100131.00;5072177;28;19916;-84
2023/03/14 05:12:35;;;;;;;;;;;;;;;1.77;61.16;100126.47;5073609;28;19924;-81
2023/03/14 05:15:01;;;;;;;;;;;;;;;1.74;61.34;100121.19;5074874;28;20360;-87
2023/03/14 05:17:26;;;;;;;;;;;;;;;1.63;62.26;100127.81;5075155;28;19950;-84
2023/03/14 05:19:52;;;;;;;;;;;;;;;1.81;62.41;100133.53;5066377;28;19913;-87
2023/03/14 05:22:18;;;;;;;;;;;;;;;1.99;62.45;100129.66;5068910;28;19923;-88
2023/03/14 05:24:43;;;;;;;;;;;;;;;1.85;62.92;100135.34;5075062;28;19916;-87
2023/03/14 05:27:09;;;;;;;;;;;;;;;1.93;62.67;100139.06;5073582;28;19923;-86
2023/03/14 05:29:34;;;;;;;;;;;;;;;1.99;63.22;100138.31;5074169;28;19917;-86
2023/03/14 05:31:59;;;;;;;;;;;;;;;2.01;62.17;100136.66;5069142;28;19923;-85
2023/03/14 05:34:24;;;;;;;;;;;;;;;2.14;61.62;100149.16;5067309;28;19913;-82
2023/03/14 05:36:50;;;;;;;;;;;;;;;2.30;61.69;100149.53;5073423;28;20007;-86
2023/03/14 05:39:15;;;;;;;;;;;;;;;2.30;61.25;100149.53;5063524;28;19959;-84
2023/03/14 05:41:40;;;;;;;;;;;;;;;2.43;60.87;100149.03;5075994;28;19916;-86
2023/03/14 05:44:06;;;;;;;;;;;;;;;2.64;60.74;100146.09;5072734;28;20014;-86
2023/03/14 05:46:31;;;;;;;;;;;;;;;2.89;60.61;100154.47;5075359;28;19912;-84
2023/03/14 05:49:00;;;;;;;;;;;;;;;3.21;60.62;100147.41;5072584;28;20294;-86
2023/03/14 05:51:25;;;;;;;;;;;;;;;3.62;59.03;100137.81;5056566;28;19955;-85
2023/03/14 05:53:50;;;;;;;;;;;;;;;3.34;59.89;100138.09;5059923;28;20359;-85
2023/03/14 05:56:16;;;;;;;;;;;;;;;3.51;60.10;100137.59;5069787;28;20298;-87
2023/03/14 05:58:41;;;;;;;;;;;;;;;3.74;58.98;100138.06;5069988;28;19923;-85
2023/03/14 06:01:07;;;;;;;;;;;;;;;3.83;58.19;100134.72;5069896;28;19916;-86
2023/03/14 06:03:32;;;;;;;;;;;;;;;4.02;57.54;100141.19;5071595;28;19919;-86
2023/03/14 06:05:58;;;;;;;;;;;;;;;4.09;57.89;100146.56;5065013;28;19916;-85
2023/03/14 06:08:23;;;;;;;;;;;;;;;4.19;57.54;100141.50;5073631;28;19965;-85
2023/03/14 06:10:48;;;;;;;;;;;;;;;4.39;57.16;100147.06;5074185;28;20302;-87
2023/03/14 06:13:15;;;;;;;;;;;;;;;4.36;57.36;100144.41;5086152;28;19923;-86
2023/03/14 06:15:40;;;;;;;;;;;;;;;4.66;56.69;100141.41;5073082;28;19913;-88
2023/03/14 06:18:06;;;;;;;;;;;;;;;4.79;55.82;100139.91;5079833;28;19922;-87
2023/03/14 06:20:32;;;;;;;;;;;;;;;5.04;55.48;100138.50;5099989;28;19920;-86
2023/03/14 06:22:58;;;;;;;;;;;;;;;4.77;55.42;100144.19;5099981;28;19904;-86
2023/03/14 06:25:23;;;;;;;;;;;;;;;4.87;56.25;100132.16;5075079;28;19995;-85
2023/03/14 06:27:48;;;;;;;;;;;;;;;5.01;56.25;100134.09;5073219;28;19919;-86
2023/03/14 06:30:14;;;;;;;;;;;;;;;5.47;55.14;100126.03;5074548;28;19912;-86
2023/03/14 06:32:39;;;;;;;;;;;;;;;5.98;54.13;100118.78;5074255;28;20010;-85
2023/03/14 06:35:04;;;;;;;;;;;;;;;6.10;52.99;100120.63;5073684;28;19912;-87
2023/03/14 06:37:30;;;;;;;;;;;;;;;6.15;52.79;100120.66;5073440;28;20240;-86
2023/03/14 06:39:55;;;;;;;;;;;;;;;6.40;52.51;100127.03;5073793;28;19944;-86
2023/03/14 06:42:21;;;;;;;;;;;;;;;6.56;52.51;100126.28;5073403;28;19920;-85
2023/03/14 06:44:46;;;;;;;;;;;;;;;6.75;52.44;100118.56;5073195;28;20428;-86
2023/03/14 06:47:12;;;;;;;;;;;;;;;6.88;51.34;100122.19;5073961;28;20004;-86
2023/03/14 06:49:37;;;;;;;;;;;;;;;6.75;51.50;100121.19;5073155;28;19916;-86
2023/03/14 06:52:03;;;;;;;;;;;;;;;6.70;51.62;100131.63;5073796;28;20003;-87
2023/03/14 06:54:28;;;;;;;;;;;;;;;7.17;50.53;100130.22;5073386;28;20285;-87
2023/03/14 06:56:53;;;;;;;;;;;;;;;7.15;50.00;100126.69;5073076;28;19916;-87
2023/03/14 06:59:19;;;;;;;;;;;;;;;7.59;49.44;100115.53;5073077;28;19912;-86
2023/03/14 07:01:44;;;;;;;;;;;;;;;7.73;49.53;100114.72;5073623;28;20330;-87
2023/03/14 07:04:10;;;;;;;;;;;;;;;7.99;49.97;100105.16;5073069;28;19916;-86
2023/03/14 07:06:35;;;;;;;;;;;;;;;8.10;49.21;100099.94;5073213;28;19955;-86
2023/03/14 07:09:01;;;;;;;;;;;;;;;8.31;48.54;100099.09;5073095;28;19916;-85
2023/03/14 07:11:26;;;;;;;;;;;;;;;8.30;47.82;100099.94;5073165;28;20018;-86
2023/03/14 07:13:52;;;;;;;;;;;;;;;8.61;47.03;100092.09;5073041;28;19912;-84
2023/03/14 07:16:17;;;;;;;;;;;;;;;8.58;46.54;100094.72;5071870;28;20336;-86
2023/03/14 07:18:42;;;;;;;;;;;;;;;8.67;45.87;100091.22;5073218;28;20306;-86
2023/03/14 07:21:09;;;;;;;;;;;;;;;8.60;46.35;100087.72;5072503;28;19927;-86
2023/03/14 07:23:34;;;;;;;;;;;;;;;8.95;45.73;100084.16;5072939;28;20332;-86
2023/03/14 07:26:01;;;;;;;;;;;;;;;9.12;45.94;100069.19;5072989;28;19924;-86
2023/03/14 07:28:27;;;;;;;;;;;;;;;8.94;46.05;100077.13;5072924;28;19912;-85
2023/03/14 07:30:53;;;;;;;;;;;;;;;9.42;43.94;100069.09;5072213;28;19966;-87
2023/03/14 07:33:18;;;;;;;;;;;;;;;9.16;45.55;100061.28;5072336;28;19912;-86
2023/03/14 07:35:44;;;;;;;;;;;;;;;9.34;44.13;100065.63;5071911;28;20703;-85
2023/03/14 07:38:09;;;;;;;;;;;;;;;9.76;43.97;100064.53;5071776;28;20386;-85
2023/03/14 07:40:34;;;;;;;;;;;;;;;9.96;43.29;100061.78;5071753;28;19919;-86
2023/03/14 07:42:59;;;;;;;;;;;;;;;10.21;41.51;100057.19;5071458;28;19912;-86
2023/03/14 07:45:25;;;;;;;;;;;;;;;9.62;42.74;100054.09;5072105;28;19920;-88
2023/03/14 07:47:50;;;;;;;;;;;;;;;9.68;43.19;100053.16;5071551;28;19919;-87
2023/03/14 07:50:15;;;;;;;;;;;;;;;10.04;41.46;100048.56;5071666;28;19970;-86
2023/03/14 07:52:41;;;;;;;;;;;;;;;10.56;41.48;100044.63;5071742;28;20310;-85
2023/03/14 07:55:07;;;;;;;;;;;;;;;10.36;40.60;100045.69;5071909;28;19908;-86
2023/03/14 07:57:32;;;;;;;;;;;;;;;10.26;41.12;100032.56;5071319;28;20363;-87
2023/03/14 07:59:57;;;;;;;;;;;;;;;10.65;40.04;100035.75;5071459;28;19919;-86
2023/03/14 08:02:23;;;;;;;;;;;;;;;10.38;40.23;100032.50;5071535;28;19913;-85
2023/03/14 08:04:49;;;;;;;;;;;;;;;10.60;39.64;100030.53;5071279;28;19920;-84
2023/03/14 08:07:15;;;;;;;;;;;;;;;11.18;38.62;100026.34;5071571;28;20310;-87
2023/03/14 08:09:40;;;;;;;;;;;;;;;11.20;39.75;100032.50;5071024;28;20009;-86
2023/03/14 08:12:06;;;;;;;;;;;;;;;11.63;37.01;100020.50;5071313;28;19970;-86
2023/03/14 08:14:31;;;;;;;;;;;;;;;11.73;37.38;100024.75;5070919;28;20382;-86
2023/03/14 08:16:56;;;;;;;;;;;;;;;11.55;36.83;100020.59;5071212;28;19942;-87
2023/03/14 08:19:22;;;;;;;;;;;;;;;11.59;39.27;100022.31;5071128;28;19919;-86
2023/03/14 08:21:48;;;;;;;;;;;;;;;11.11;37.49;100011.50;5071312;28;19916;-86
2023/03/14 08:24:13;;;;;;;;;;;;;;;11.49;37.15;100012.75;5071775;28;19962;-86
2023/03/14 08:26:38;;;;;;;;;;;;;;;11.83;36.77;100009.63;5071339;28;20386;-85
2023/03/14 08:29:04;;;;;;;;;;;;;;;11.33;37.82;100013.88;5071650;28;20003;-85
2023/03/14 08:31:29;;;;;;;;;;;;;;;11.19;36.82;100006.13;5071573;28;20045;-86
2023/03/14 08:33:57;;;;;;;;;;;;;;;11.34;37.54;100005.94;5071820;28;20343;-86
2023/03/14 08:36:23;;;;;;;;;;;;;;;11.13;37.90;100007.06;5071614;28;20684;-86
2023/03/14 08:38:48;;;;;;;;;;;;;;;11.44;37.32;100009.31;5071743;28;19963;-86
2023/03/14 08:41:13;;;;;;;;;;;;;;;10.92;37.15;100000.25;5071065;28;20374;-86
2023/03/14 08:43:38;;;;;;;;;;;;;;;10.27;39.29;99995.66;5071281;28;19912;-86
2023/03/14 08:46:04;;;;;;;;;;;;;;;10.50;39.60;99984.91;5071355;28;19912;-86
2023/03/14 08:48:30;;;;;;;;;;;;;;;10.25;39.19;99986.00;5071087;28;19920;-86
2023/03/14 08:51:05;;;;;;;;;;;;;;;10.17;36.49;99983.41;5071239;28;19912;-86
2023/03/14 08:53:30;;;;;;;;;;;;;;;9.92;38.74;99978.34;5071482;28;19912;-86
2023/03/14 08:55:57;;;;;;;;;;;;;;;10.67;38.87;99976.78;5071451;28;19912;-87
2023/03/14 08:58:23;;;;;;;;;;;;;;;10.62;39.99;99969.84;5070792;28;19919;-88
2023/03/14 09:00:48;;;;;;;;;;;;;;;10.63;38.50;99963.66;5071215;28;19912;-87
2023/03/14 09:03:14;;;;;;;;;;;;;;;10.85;37.18;99954.59;5071155;28;19912;-86
2023/03/14 09:05:40;;;;;;;;;;;;;;;11.17;38.66;99953.34;5071060;28;19912;-86
2023/03/14 09:08:05;;;;;;;;;;;;;;;10.90;36.79;99951.91;5071303;28;20425;-86
2023/03/14 09:10:31;;;;;;;;;;;;;;;11.02;36.78;99942.97;5071033;28;19922;-86
2023/03/14 09:12:57;;;;;;;;;;;;;;;10.77;36.56;99942.38;5070639;28;19962;-86
2023/03/14 09:15:23;;;;;;;;;;;;;;;10.99;37.99;99937.75;5070821;28;19977;-86
2023/03/14 09:17:48;;;;;;;;;;;;;;;10.93;37.30;99934.25;5070972;28;19913;-86
2023/03/14 09:20:14;;;;;;;;;;;;;;;11.04;36.38;99928.84;5070599;28;20345;-86
2023/03/14 09:22:39;;;;;;;;;;;;;;;11.10;39.61;99914.69;5071208;28;20378;-87
2023/03/14 09:25:05;;;;;;;;;;;;;;;11.36;38.04;99913.47;5071071;28;19970;-87
2023/03/14 09:27:30;;;;;;;;;;;;;;;11.73;37.02;99907.63;5070676;28;19934;-87
2023/03/14 09:29:55;;;;;;;;;;;;;;;11.51;35.54;99901.78;5070579;28;19912;-86
2023/03/14 09:32:20;;;;;;;;;;;;;;;11.52;35.86;99906.19;5070640;28;19916;-86
2023/03/14 09:34:46;;;;;;;;;;;;;;;11.75;36.11;99897.88;5070648;28;19919;-86
2023/03/14 09:37:11;;;;;;;;;;;;;;;11.54;35.36;99896.44;5070950;28;19958;-86
2023/03/14 09:39:37;;;;;;;;;;;;;;;11.46;36.01;99886.00;5070470;28;20015;-86
2023/03/14 09:42:04;;;;;;;;;;;;;;;11.50;36.87;99884.22;5070562;28;19912;-86
2023/03/14 09:44:35;;;;;;;;;;;;;;;11.45;35.73;99882.50;5070781;28;19912;-86
2023/03/14 09:47:07;;;;;;;;;;;;;;;11.45;35.63;99882.50;5070202;28;19919;-86
2023/03/14 09:49:38;;;;;;;;;;;;;;;11.39;36.21;99871.16;5070595;28;19912;-86
2023/03/14 09:52:13;;;;;;;;;;;;;;;11.65;35.81;99874.25;5070380;28;20451;-86
2023/03/14 09:54:42;;;;;;;;;;;;;;;11.46;36.18;99864.88;5070625;28;19917;-87
2023/03/14 09:57:12;;;;;;;;;;;;;;;11.54;36.38;99863.00;5070202;28;20349;-86
2023/03/14 09:59:38;;;;;;;;;;;;;;;11.68;36.10;99872.44;5070610;28;20007;-87
2023/03/14 10:02:14;;;;;;;;;;;;;;;11.51;36.62;99860.41;5070311;28;19912;-86
2023/03/14 10:04:43;;;;;;;;;;;;;;;11.87;36.00;99857.16;5070131;28;19912;-87
2023/03/14 10:07:13;;;;;;;;;;;;;;;11.83;35.51;99858.97;5070161;28;19912;-86
2023/03/14 10:09:38;;;;;;;;;;;;;;;11.98;35.06;99850.81;5069538;28;19912;-87
2023/03/14 10:12:07;;;;;;;;;;;;;;;11.97;34.71;99848.19;5069450;28;19962;-87
2023/03/14 10:14:34;;;;;;;;;;;;;;;11.98;34.71;99831.44;5069652;28;19914;-87
2023/03/14 10:17:07;;;;;;;;;;;;;;;12.22;33.56;99835.41;5069742;28;19912;-87
2023/03/14 10:19:35;;;;;;;;;;;;;;;12.00;33.35;99824.34;5070395;28;19969;-87
2023/03/14 10:22:01;;;;;;;;;;;;;;;12.06;32.91;99818.94;5070072;28;19952;-89
2023/03/14 10:24:28;;;;;;;;;;;;;;;12.14;33.23;99813.50;5068973;28;19935;-92
2023/03/14 10:26:55;;;;;;;;;;;;;;;12.54;33.90;99803.00;5070117;28;20344;-88
2023/03/14 10:29:23;;;;;;;;;;;;;;;12.80;33.02;99795.38;5070535;28;20429;-89
2023/03/14 10:31:58;;;;;;;;;;;;;;;13.06;36.73;99787.69;5070828;28;19912;-91
2023/03/14 10:34:32;;;;;;;;;;;;;;;12.96;33.69;99786.19;5071361;28;19912;-90
2023/03/14 10:36:59;;;;;;;;;;;;;;;12.65;35.38;99775.41;5071619;28;19912;-90
2023/03/14 10:39:27;;;;;;;;;;;;;;;12.74;35.95;99771.69;5075449;28;19920;-89
2023/03/14 10:41:54;;;;;;;;;;;;;;;13.08;34.87;99770.00;5086461;28;19943;-89
2023/03/14 10:44:22;;;;;;;;;;;;;;;13.20;35.27;99760.88;5088299;28;20107;-89
2023/03/14 10:46:59;;;;;;;;;;;;;;;13.33;33.35;99758.84;5088312;28;19900;-89
2023/03/14 10:49:31;;;;;;;;;;;;;;;13.15;34.84;99749.53;5094854;28;19914;-88
2023/03/14 10:52:00;;;;;;;;;;;;;;;12.59;35.06;99749.97;5098110;28;19904;-87
2023/03/14 10:54:29;;;;;;;;;;;;;;;12.54;35.49;99741.25;5073045;28;19912;-88
2023/03/14 10:57:01;;;;;;;;;;;;;;;12.60;35.33;99740.25;5073324;28;19982;-88
2023/03/14 10:59:38;;;;;;;;;;;;;;;12.76;36.35;99732.81;5072555;28;20365;-90
2023/03/14 11:02:23;;;;;;;;;;;;;;;13.19;33.78;99719.41;5065350;28;19916;-89
2023/03/14 11:05:24;;;;;;;;;;;;;;;13.67;35.16;99712.91;5072551;28;19920;-91
2023/03/14 11:07:52;;;;;;;;;;;;;;;13.29;33.29;99705.94;5030485;28;20443;-88
2023/03/14 11:10:26;;;;;;;;;;;;;;;13.23;34.14;99694.56;5030330;28;19913;-87
2023/03/14 11:13:06;;;;;;;;;;;;;;;13.27;33.94;99698.03;5030240;28;19913;-86
2023/03/14 11:15:34;;;;;;;;;;;;;;;13.21;33.96;99685.81;5030166;28;19963;-87
2023/03/14 11:18:08;;;;;;;;;;;;;;;13.27;35.13;99676.84;5030500;28;19913;-88
2023/03/14 11:20:44;;;;;;;;;;;;;;;12.84;35.22;99673.50;5030241;28;19913;-90
2023/03/14 11:23:10;;;;;;;;;;;;;;;12.84;36.00;99662.91;5029901;28;20016;-88
2023/03/14 11:25:51;;;;;;;;;;;;;;;12.98;34.74;99651.97;5030237;28;20374;-85
2023/03/14 11:28:18;;;;;;;;;;;;;;;13.30;35.01;99647.63;5029699;28;19909;-88
2023/03/14 11:30:54;;;;;;;;;;;;;;;13.03;34.93;99639.47;5029949;28;19913;-89
2023/03/14 11:33:19;;;;;;;;;;;;;;;13.18;35.23;99638.22;5029673;28;19931;-89
2023/03/14 11:35:49;;;;;;;;;;;;;;;13.20;35.53;99622.28;5029837;28;20376;-88
2023/03/14 11:38:29;;;;;;;;;;;;;;;13.17;35.96;99614.41;5029805;28;19913;-88
2023/03/14 11:40:57;;;;;;;;;;;;;;;13.27;35.54;99618.56;5035572;28;19916;-89
2023/03/14 11:43:28;;;;;;;;;;;;;;;13.43;35.34;99609.28;5071656;28;19939;-89
2023/03/14 11:45:57;;;;;;;;;;;;;;;13.27;35.05;99605.31;5070248;28;20361;-90
2023/03/14 11:48:28;;;;;;;;;;;;;;;13.61;35.05;99593.81;5071815;28;19939;-88
2023/03/14 11:50:55;;;;;;;;;;;;;;;13.63;35.25;99588.47;5070448;28;19916;-87
2023/03/14 11:53:29;;;;;;;;;;;;;;;13.83;35.31;99572.81;5071795;28;19917;-88
2023/03/14 11:55:56;;;;;;;;;;;;;;;13.78;34.90;99570.31;5072016;28;19920;-89
2023/03/14 11:58:27;;;;;;;;;;;;;;;13.39;34.77;99567.03;5070512;28;19916;-88
2023/03/14 12:00:54;;;;;;;;;;;;;;;13.32;35.71;99554.88;5071156;28;19913;-88
2023/03/14 12:03:38;;;;;;;;;;;;;;;13.42;35.28;99543.09;5071604;28;19912;-85
2023/03/14 12:06:21;;;;;;;;;;;;;;;13.70;35.38;99539.63;5070199;28;20306;-88
2023/03/14 12:08:58;;;;;;;;;;;;;;;13.47;35.87;99532.38;5071248;28;19944;-87
2023/03/14 12:11:29;;;;;;;;;;;;;;;13.54;35.27;99516.25;5071384;28;19927;-87
2023/03/14 12:13:54;;;;;;;;;;;;;;;13.97;34.34;99499.00;5071271;28;19909;-87
2023/03/14 12:16:20;;;;;;;;;;;;;;;13.48;36.65;99505.81;5071300;28;20314;-87
2023/03/14 12:18:45;;;;;;;;;;;;;;;13.44;35.95;99504.19;5071116;28;20025;-86
2023/03/14 12:21:11;;;;;;;;;;;;;;;13.57;36.47;99483.50;5070879;28;19981;-86
2023/03/14 12:23:56;;;;;;;;;;;;;;;13.61;36.60;99483.34;5071132;28;20025;-86
2023/03/14 12:26:26;;;;;;;;;;;;;;;13.85;35.97;99472.88;5070912;28;20011;-86
2023/03/14 12:29:09;;;;;;;;;;;;;;;13.94;34.92;99469.94;5070964;28;20429;-86
2023/03/14 12:31:37;;;;;;;;;;;;;;;13.86;34.99;99450.75;5071068;28;19913;-87
2023/03/14 12:34:05;;;;;;;;;;;;;;;13.87;35.01;99454.28;5070823;28;20082;-86
2023/03/14 12:36:49;;;;;;;;;;;;;;;13.95;33.94;99439.00;5070903;28;19916;-87
2023/03/14 12:39:21;;;;;;;;;;;;;;;13.99;34.58;99442.41;5070573;28;19920;-86
2023/03/14 12:41:52;;;;;;;;;;;;;;;14.15;34.95;99438.34;5069498;28;20310;-87
2023/03/14 12:44:40;;;;;;;;;;;;;;;14.07;35.05;99440.34;5070280;28;19916;-87
2023/03/14 12:47:18;;;;;;;;;;;;;;;14.11;34.85;99440.19;5028401;28;19913;-87